Time;durP1;ratioP1;P1;durP2;ratioP2;P2;SDS_P1;SDS_P2;PMS_P1;PMS_P2;Temp;Humidity;BMP_temperature;BMP_pressure;BME280_temperature;BME280_humidity;BME280_pressure;Samples;Min_cycle;Max_cycle;Signal;HPM_P1;HPM_P2
2023/07/22 00:00:42;;;;;;;4.38;3.97;;;;;;;11.97;nan;100328.34;4803926;29;20519;-80
2023/07/22 00:03:09;;;;;;;5.72;4.68;;;;;;;11.95;nan;100330.19;4814448;29;20051;-80
2023/07/22 00:05:37;;;;;;;5.43;3.90;;;;;;;11.97;nan;100323.91;4809479;29;20050;-80
2023/07/22 00:08:04;;;;;;;4.75;4.22;;;;;;;11.96;nan;100319.53;4808938;29;20049;-81
2023/07/22 00:10:30;;;;;;;5.32;4.82;;;;;;;12.07;nan;100321.84;4806733;29;20138;-81
2023/07/22 00:12:58;;;;;;;5.03;3.78;;;;;;;12.03;nan;100321.06;4809226;29;20111;-81
2023/07/22 00:15:25;;;;;;;5.13;4.45;;;;;;;12.08;nan;100326.22;4794799;29;20042;-81
2023/07/22 00:17:52;;;;;;;5.50;4.47;;;;;;;12.10;nan;100324.38;4820596;29;20163;-81
2023/07/22 00:20:19;;;;;;;6.50;4.78;;;;;;;12.14;nan;100326.03;4838595;29;20138;-81
2023/07/22 00:22:47;;;;;;;6.60;4.90;;;;;;;12.20;nan;100320.53;4818031;29;20047;-80
2023/07/22 00:25:14;;;;;;;5.53;4.93;;;;;;;12.21;nan;100324.06;4793471;29;20567;-80
2023/07/22 00:27:42;;;;;;;5.57;5.07;;;;;;;12.27;nan;100315.88;4806547;29;20049;-80
2023/07/22 00:30:09;;;;;;;5.82;5.22;;;;;;;12.33;nan;100313.91;4788815;29;20049;-80
2023/07/22 00:32:37;;;;;;;7.18;5.82;;;;;;;12.38;nan;100306.69;4826368;29;20039;-80
2023/07/22 00:35:05;;;;;;;6.75;5.68;;;;;;;12.47;nan;100316.09;4802828;29;20045;-81
2023/07/22 00:37:32;;;;;;;6.15;5.53;;;;;;;12.48;nan;100307.22;4803852;29;20546;-79
2023/07/22 00:40:01;;;;;;;7.63;6.03;;;;;;;12.54;nan;100314.97;4824411;29;20039;-80
2023/07/22 00:42:28;;;;;;;8.50;6.38;;;;;;;12.56;nan;100304.31;4813088;29;20042;-80
2023/07/22 00:44:55;;;;;;;7.03;6.32;;;;;;;12.62;nan;100304.13;4816589;29;20042;-80
2023/07/22 00:47:22;;;;;;;7.57;6.32;;;;;;;12.63;nan;100306.72;4801154;29;20079;-80
2023/07/22 00:49:49;;;;;;;6.63;5.95;;;;;;;12.69;nan;100308.25;4801372;29;20027;-80
2023/07/22 00:52:17;;;;;;;6.90;6.20;;;;;;;12.74;nan;100313.41;4815170;29;20521;-79
2023/07/22 00:54:44;;;;;;;6.68;5.95;;;;;;;12.78;nan;100318.56;4794150;29;20051;-79
2023/07/22 00:57:11;;;;;;;8.75;7.75;;;;;;;12.81;nan;100328.19;4829573;29;20043;-80
2023/07/22 00:59:40;;;;;;;8.50;7.70;;;;;;;12.92;nan;100326.03;4809442;29;20047;-79
2023/07/22 01:02:07;;;;;;;8.65;7.55;;;;;;;12.92;nan;100318.94;4827140;29;20047;-80
2023/07/22 01:04:35;;;;;;;9.30;7.45;;;;;;;13.00;nan;100320.44;4812906;29;20057;-79
2023/07/22 01:07:06;;;;;;;7.95;7.18;;;;;;;12.99;nan;100314.28;4813249;29;20043;-79
2023/07/22 01:09:37;;;;;;;9.73;7.65;;;;;;;12.99;nan;100321.38;4829284;29;20496;-80
2023/07/22 01:12:08;;;;;;;8.32;7.25;;;;;;;13.08;nan;100311.31;4809314;29;20053;-80
2023/07/22 01:14:37;;;;;;;8.13;7.30;;;;;;;13.05;nan;100314.06;4830464;29;20047;-80
2023/07/22 01:17:05;;;;;;;8.27;7.18;;;;;;;13.06;nan;100307.84;4768936;29;20058;-80
2023/07/22 01:19:33;;;;;;;9.20;7.95;;;;;;;13.12;nan;100306.78;4784592;29;20053;-80
2023/07/22 01:22:01;;;;;;;8.23;7.32;;;;;;;13.15;nan;100301.34;4806049;29;20061;-80
2023/07/22 01:24:29;;;;;;;7.90;6.97;;;;;;;13.14;nan;100296.97;4806178;29;20056;-80
2023/07/22 01:26:56;;;;;;;10.10;7.32;;;;;;;13.08;nan;100308.66;4802255;29;20038;-80
2023/07/22 01:29:24;;;;;;;7.78;7.00;;;;;;;13.10;nan;100301.50;4820518;29;20044;-80
2023/07/22 01:31:53;;;;;;;8.60;7.70;;;;;;;13.16;nan;100295.97;4786398;29;20051;-80
2023/07/22 01:34:21;;;;;;;8.60;7.80;;;;;;;13.17;nan;100299.50;4818717;29;20042;-80
2023/07/22 01:36:49;;;;;;;7.72;6.85;;;;;;;13.12;nan;100293.50;4800324;29;20031;-80
2023/07/22 01:39:16;;;;;;;6.65;5.88;;;;;;;13.10;nan;100293.53;4802170;29;20035;-80
2023/07/22 01:41:43;;;;;;;8.27;7.47;;;;;;;13.15;nan;100293.38;4798569;29;20518;-79
2023/07/22 01:44:13;;;;;;;8.50;7.63;;;;;;;13.16;nan;100289.81;4806882;29;20457;-79
2023/07/22 01:46:41;;;;;;;7.90;7.10;;;;;;;13.14;nan;100295.16;4811016;29;20055;-79
2023/07/22 01:49:12;;;;;;;9.10;8.05;;;;;;;13.22;nan;100309.06;4793229;29;1049408;-79
2023/07/22 01:51:42;;;;;;;7.97;7.18;;;;;;;13.30;nan;100308.78;4802783;29;20049;-79
2023/07/22 01:54:15;;;;;;;8.05;7.15;;;;;;;13.24;nan;100314.28;4810133;29;20046;-79
2023/07/22 01:56:42;;;;;;;8.90;7.97;;;;;;;13.23;nan;100313.44;4803424;29;20051;-80
2023/07/22 01:59:09;;;;;;;10.57;7.95;;;;;;;13.27;nan;100311.50;4822648;29;20046;-80
2023/07/22 02:01:36;;;;;;;8.60;7.35;;;;;;;13.25;nan;100316.03;4806488;29;20046;-80
2023/07/22 02:04:03;;;;;;;8.55;7.72;;;;;;;13.16;nan;100316.31;4788532;29;20046;-80
2023/07/22 02:06:30;;;;;;;9.13;7.55;;;;;;;13.16;nan;100318.97;4804519;29;20051;-80
2023/07/22 02:08:57;;;;;;;9.77;7.85;;;;;;;13.19;nan;100310.91;4826750;29;20057;-80
2023/07/22 02:11:24;;;;;;;10.13;8.52;;;;;;;13.16;nan;100318.97;4802595;29;20034;-81
2023/07/22 02:13:51;;;;;;;9.20;8.13;;;;;;;13.16;nan;100324.28;4801786;29;20056;-80
2023/07/22 02:16:18;;;;;;;8.82;7.93;;;;;;;13.17;nan;100328.66;4802187;29;20053;-81
2023/07/22 02:18:46;;;;;;;9.65;7.68;;;;;;;13.16;nan;100333.09;4801217;29;20050;-80
2023/07/22 02:21:13;;;;;;;9.77;8.75;;;;;;;13.17;nan;100326.00;4801253;29;20388;-80
2023/07/22 02:23:40;;;;;;;9.73;8.13;;;;;;;13.18;nan;100323.28;4805576;29;20057;-80
2023/07/22 02:26:07;;;;;;;8.73;7.70;;;;;;;13.17;nan;100326.88;4813613;29;20045;-80
2023/07/22 02:28:34;;;;;;;9.82;7.65;;;;;;;13.21;nan;100332.97;4801517;29;20053;-80
2023/07/22 02:31:06;;;;;;;12.43;7.70;;;;;;;13.26;nan;100348.72;4826546;29;20418;-81
2023/07/22 02:33:34;;;;;;;8.73;7.68;;;;;;;13.23;nan;100355.00;4815932;29;20046;-80
2023/07/22 02:36:01;;;;;;;10.57;8.00;;;;;;;13.18;nan;100347.16;4791846;29;20054;-80
2023/07/22 02:38:28;;;;;;;9.02;7.80;;;;;;;13.22;nan;100354.16;4822714;29;20043;-80
2023/07/22 02:40:55;;;;;;;8.50;7.70;;;;;;;13.19;nan;100358.66;4806268;29;20689;-81
2023/07/22 02:43:22;;;;;;;10.38;8.20;;;;;;;13.28;nan;100354.81;4808612;29;20507;-80
2023/07/22 02:45:49;;;;;;;8.20;7.35;;;;;;;13.26;nan;100357.53;4802853;29;20042;-80
2023/07/22 02:48:16;;;;;;;9.13;8.23;;;;;;;13.29;nan;100364.53;4806590;29;20042;-81
2023/07/22 02:50:43;;;;;;;10.82;7.40;;;;;;;13.20;nan;100371.00;4785643;29;20053;-80
2023/07/22 02:53:10;;;;;;;9.43;7.65;;;;;;;13.27;nan;100379.63;4807233;29;20043;-80
2023/07/22 02:55:37;;;;;;;9.70;7.55;;;;;;;13.23;nan;100377.09;4825435;29;20043;-80
2023/07/22 02:58:05;;;;;;;8.60;7.53;;;;;;;13.29;nan;100378.69;4800466;29;20051;-80
2023/07/22 03:00:32;;;;;;;8.73;7.45;;;;;;;13.32;nan;100381.22;4799606;29;20043;-81
2023/07/22 03:03:02;;;;;;;8.38;6.57;;;;;;;13.24;nan;100377.97;4820679;29;20072;-80
2023/07/22 03:05:31;;;;;;;8.15;7.35;;;;;;;13.28;nan;100390.19;4817504;29;20049;-80
2023/07/22 03:07:58;;;;;;;7.30;6.35;;;;;;;13.29;nan;100388.41;4811054;29;20047;-81
2023/07/22 03:10:25;;;;;;;9.20;6.85;;;;;;;13.26;nan;100385.84;4799932;29;20042;-81
2023/07/22 03:12:55;;;;;;;7.13;6.18;;;;;;;13.28;nan;100398.13;4800516;29;20043;-80
2023/07/22 03:15:25;;;;;;;7.05;6.35;;;;;;;13.35;nan;100406.75;4800243;29;20396;-80
2023/07/22 03:17:53;;;;;;;7.93;6.78;;;;;;;13.42;nan;100398.53;4823904;29;20047;-80
2023/07/22 03:20:21;;;;;;;8.35;6.15;;;;;;;13.43;nan;100402.91;4812173;29;20044;-80
2023/07/22 03:22:49;;;;;;;8.68;6.88;;;;;;;13.39;nan;100405.75;4814196;29;20043;-81
2023/07/22 03:25:16;;;;;;;6.65;5.90;;;;;;;13.37;nan;100407.56;4788050;29;20043;-80
2023/07/22 03:27:44;;;;;;;6.80;5.95;;;;;;;13.31;nan;100400.69;4792437;29;20042;-81
2023/07/22 03:30:17;;;;;;;7.05;5.82;;;;;;;13.34;nan;100405.88;4805724;29;20039;-81
2023/07/22 03:32:47;;;;;;;6.05;5.40;;;;;;;13.30;nan;100401.63;4814121;29;20047;-80
2023/07/22 03:35:14;;;;;;;6.50;5.65;;;;;;;13.27;nan;100404.38;4834115;29;20038;-80
2023/07/22 03:37:41;;;;;;;6.47;5.45;;;;;;;13.37;nan;100402.25;4829695;29;20046;-79
2023/07/22 03:40:26;;;;;;;7.07;5.43;;;;;;;13.34;nan;100416.50;4815017;29;20043;-81
2023/07/22 03:42:53;;;;;;;;;;;;;;;13.32;nan;100418.34;4827942;29;20041;-80
2023/07/22 03:45:21;;;;;;;7.22;5.25;;;;;;;13.33;nan;100414.78;4777511;29;19925;-81
2023/07/22 03:47:54;;;;;;;5.20;4.70;;;;;;;13.28;nan;100413.19;4820614;29;20057;-80
2023/07/22 03:50:21;;;;;;;6.40;5.32;;;;;;;13.33;nan;100414.78;4807718;29;20049;-80
2023/07/22 03:52:48;;;;;;;6.38;4.82;;;;;;;13.30;nan;100414.03;4813478;29;20043;-80
2023/07/22 03:55:15;;;;;;;5.80;5.03;;;;;;;13.22;nan;100423.13;4810125;29;20072;-80
2023/07/22 03:57:42;;;;;;;5.60;4.40;;;;;;;13.22;nan;100428.44;4817458;29;20398;-80
2023/07/22 04:00:09;;;;;;;5.30;4.70;;;;;;;13.23;nan;100422.19;4807897;29;20038;-79
2023/07/22 04:02:36;;;;;;;5.70;5.10;;;;;;;13.23;nan;100421.34;4805206;29;20049;-80
2023/07/22 04:05:04;;;;;;;5.50;4.80;;;;;;;13.26;nan;100421.22;4806405;29;20051;-78
2023/07/22 04:07:31;;;;;;;5.50;4.80;;;;;;;13.31;nan;100416.63;4802640;29;20039;-78
2023/07/22 04:09:58;;;;;;;6.82;4.88;;;;;;;13.37;nan;100423.47;4794232;29;20044;-78
2023/07/22 04:12:25;;;;;;;5.13;4.25;;;;;;;13.30;nan;100420.19;4805647;29;20414;-78
2023/07/22 04:14:52;;;;;;;6.32;4.60;;;;;;;13.32;nan;100421.00;4801362;29;20518;-79
2023/07/22 04:17:19;;;;;;;5.30;4.30;;;;;;;13.42;nan;100425.06;4808374;29;20114;-79
2023/07/22 04:19:46;;;;;;;4.57;4.18;;;;;;;13.45;nan;100429.38;4807390;29;21782;-78
2023/07/22 04:22:13;;;;;;;4.93;4.15;;;;;;;13.44;nan;100430.31;4805926;29;20926;-79
2023/07/22 04:24:40;;;;;;;5.68;4.57;;;;;;;13.46;nan;100424.03;4835148;29;20035;-79
2023/07/22 04:27:07;;;;;;;5.07;4.28;;;;;;;13.40;nan;100423.38;4805198;29;20035;-78
2023/07/22 04:29:35;;;;;;;5.45;3.90;;;;;;;13.52;nan;100431.75;4804385;29;20030;-79
2023/07/22 04:32:02;;;;;;;5.07;4.13;;;;;;;13.39;nan;100434.94;4789842;29;20061;-78
2023/07/22 04:34:30;;;;;;;8.20;4.32;;;;;;;13.43;nan;100439.19;4801031;29;20070;-79
2023/07/22 04:36:57;;;;;;;6.50;4.53;;;;;;;13.38;nan;100426.09;4804137;29;20041;-79
2023/07/22 04:39:24;;;;;;;7.35;4.38;;;;;;;13.44;nan;100433.81;4821875;29;20065;-78
2023/07/22 04:41:51;;;;;;;6.93;4.35;;;;;;;13.43;nan;100437.41;4809842;29;20145;-79
2023/07/22 04:44:19;;;;;;;4.72;4.07;;;;;;;13.45;nan;100435.56;4837807;29;20103;-78
2023/07/22 04:46:46;;;;;;;4.93;4.22;;;;;;;13.46;nan;100433.78;4835080;29;20133;-79
2023/07/22 04:49:13;;;;;;;6.68;4.22;;;;;;;13.52;nan;100439.72;4804306;29;20039;-79
2023/07/22 04:51:40;;;;;;;6.10;4.65;;;;;;;13.57;nan;100438.69;4814259;29;20052;-79
2023/07/22 04:54:07;;;;;;;5.82;4.43;;;;;;;13.58;nan;100445.75;4811845;29;20038;-79
2023/07/22 04:56:34;;;;;;;5.93;4.40;;;;;;;13.66;nan;100451.63;4804851;29;20042;-80
2023/07/22 04:59:01;;;;;;;5.35;4.60;;;;;;;13.70;nan;100445.28;4810225;29;20047;-78
2023/07/22 05:01:29;;;;;;;6.70;4.65;;;;;;;13.72;nan;100449.63;4819773;29;20043;-79
2023/07/22 05:03:57;;;;;;;6.68;4.68;;;;;;;13.88;nan;100444.63;4835205;29;20043;-79
2023/07/22 05:06:24;;;;;;;5.85;4.43;;;;;;;13.86;nan;100448.22;4807949;29;20038;-78
2023/07/22 05:08:52;;;;;;;5.97;4.47;;;;;;;13.94;nan;100451.47;4831982;29;20039;-82
2023/07/22 05:11:19;;;;;;;6.93;4.53;;;;;;;13.96;nan;100457.63;4829001;29;20663;-81
2023/07/22 05:13:46;;;;;;;5.85;4.28;;;;;;;14.07;nan;100450.09;4816745;29;20063;-80
2023/07/22 05:16:14;;;;;;;7.60;5.25;;;;;;;14.23;nan;100455.69;4800059;29;20042;-81
2023/07/22 05:18:42;;;;;;;5.43;4.57;;;;;;;14.32;nan;100458.00;4828356;29;20051;-80
2023/07/22 05:21:08;;;;;;;6.07;5.00;;;;;;;14.36;nan;100454.28;4813350;29;20042;-80
2023/07/22 05:23:35;;;;;;;5.72;4.90;;;;;;;14.35;nan;100457.84;4822735;29;20053;-80
2023/07/22 05:26:02;;;;;;;7.90;5.15;;;;;;;14.42;nan;100462.00;4812424;29;20944;-79
2023/07/22 05:28:29;;;;;;;5.97;5.13;;;;;;;14.43;nan;100453.09;4808089;29;20062;-80
2023/07/22 05:30:56;;;;;;;6.22;5.57;;;;;;;14.53;nan;100464.28;4809242;29;20099;-82
2023/07/22 05:33:24;;;;;;;6.13;5.22;;;;;;;14.57;nan;100466.75;4822715;29;20054;-80
2023/07/22 05:35:50;;;;;;;6.15;5.18;;;;;;;14.57;nan;100464.09;4811720;29;20580;-79
2023/07/22 05:38:17;;;;;;;5.95;5.22;;;;;;;14.79;nan;100466.72;4801629;29;20039;-80
2023/07/22 05:40:44;;;;;;;6.47;5.25;;;;;;;14.84;nan;100459.44;4826961;29;20043;-80
2023/07/22 05:43:11;;;;;;;7.65;5.82;;;;;;;14.93;nan;100466.19;4791892;29;20043;-82
2023/07/22 05:45:38;;;;;;;6.45;5.38;;;;;;;14.96;nan;100475.81;4781361;29;20456;-79
2023/07/22 05:48:05;;;;;;;6.60;5.00;;;;;;;15.06;nan;100472.72;4805306;29;20054;-79
2023/07/22 05:50:32;;;;;;;7.03;5.70;;;;;;;15.21;nan;100473.84;4809113;29;20055;-79
2023/07/22 05:52:59;;;;;;;5.78;4.45;;;;;;;15.59;nan;100474.00;4799914;29;20418;-78
2023/07/22 05:55:26;;;;;;;5.75;4.30;;;;;;;16.18;nan;100471.34;4795250;29;20047;-81
2023/07/22 05:57:54;;;;;;;4.80;3.90;;;;;;;16.59;nan;100468.50;4785849;29;20035;-80
2023/07/22 06:00:21;;;;;;;5.18;3.72;;;;;;;16.86;nan;100475.19;4806192;29;20035;-80
2023/07/22 06:02:48;;;;;;;7.20;4.45;;;;;;;16.77;nan;100475.66;4800150;29;20053;-81
2023/07/22 06:05:15;;;;;;;5.88;4.00;;;;;;;16.62;nan;100484.34;4805284;29;20047;-80
2023/07/22 06:07:42;;;;;;;5.82;3.88;;;;;;;16.71;nan;100483.06;4823763;29;20039;-80
2023/07/22 06:10:10;;;;;;;5.40;4.15;;;;;;;16.75;nan;100490.88;4801842;29;20045;-80
2023/07/22 06:12:36;;;;;;;4.85;4.45;;;;;;;17.01;nan;100488.72;4800825;29;20045;-81
2023/07/22 06:15:04;;;;;;;7.07;3.78;;;;;;;17.39;nan;100490.31;4824668;29;20045;-80
2023/07/22 06:17:31;;;;;;;4.50;3.72;;;;;;;17.67;nan;100491.56;4813724;29;20043;-79
2023/07/22 06:19:58;;;;;;;3.85;3.17;;;;;;;17.72;nan;100490.41;4806649;29;20054;-80
2023/07/22 06:22:25;;;;;;;4.55;3.30;;;;;;;17.77;nan;100490.16;4785900;29;20051;-80
2023/07/22 06:24:52;;;;;;;3.90;3.45;;;;;;;17.82;nan;100493.44;4786151;29;20061;-80
2023/07/22 06:27:19;;;;;;;5.28;3.75;;;;;;;17.78;nan;100496.38;4786307;29;20076;-80
2023/07/22 06:29:46;;;;;;;6.20;3.80;;;;;;;17.86;nan;100494.16;4826680;29;20051;-79
2023/07/22 06:32:13;;;;;;;4.80;3.92;;;;;;;18.08;nan;100491.22;4806270;29;20512;-82
2023/07/22 06:34:40;;;;;;;7.80;3.63;;;;;;;18.21;nan;100495.78;4811746;29;20121;-78
2023/07/22 06:37:07;;;;;;;5.13;3.40;;;;;;;18.40;nan;100490.28;4807892;29;20122;-80
2023/07/22 06:39:34;;;;;;;5.82;3.38;;;;;;;18.34;nan;100489.78;4811735;29;20348;-80
2023/07/22 06:42:01;;;;;;;6.38;3.60;;;;;;;18.33;nan;100491.59;4814081;29;20034;-81
2023/07/22 06:44:27;;;;;;;4.72;3.22;;;;;;;18.33;nan;100499.63;4785876;29;20134;-79
2023/07/22 06:46:56;;;;;;;4.40;3.20;;;;;;;18.25;nan;100494.69;4809793;29;20039;-78
2023/07/22 06:49:23;;;;;;;4.32;3.17;;;;;;;18.14;nan;100501.53;4828126;29;20095;-79
2023/07/22 06:51:51;;;;;;;4.82;3.00;;;;;;;18.32;nan;100492.50;4834868;29;20121;-79
2023/07/22 06:54:18;;;;;;;5.15;3.35;;;;;;;18.69;nan;100487.84;4804778;29;20057;-79
2023/07/22 06:56:45;;;;;;;4.82;3.10;;;;;;;18.63;nan;100488.13;4804376;29;20042;-78
2023/07/22 06:59:12;;;;;;;4.95;3.40;;;;;;;18.64;nan;100495.22;4830487;29;20514;-79
2023/07/22 07:01:39;;;;;;;4.80;3.38;;;;;;;18.71;nan;100483.25;4804052;29;20030;-79
2023/07/22 07:04:07;;;;;;;5.82;3.33;;;;;;;18.68;nan;100500.34;4821540;29;20049;-79
2023/07/22 07:06:35;;;;;;;5.60;3.30;;;;;;;18.57;nan;100497.34;4836869;29;20047;-79
2023/07/22 07:09:02;;;;;;;6.43;3.65;;;;;;;18.73;nan;100497.41;4832741;29;20123;-78
2023/07/22 07:11:30;;;;;;;6.75;3.60;;;;;;;18.90;nan;100497.28;4817842;29;20042;-79
2023/07/22 07:13:57;;;;;;;4.25;3.22;;;;;;;18.66;nan;100498.69;4839805;29;20098;-80
2023/07/22 07:16:27;;;;;;;5.60;4.05;;;;;;;18.78;nan;100508.72;4835215;29;20035;-79
2023/07/22 07:18:55;;;;;;;5.82;3.90;;;;;;;18.67;nan;100497.75;4816645;29;20053;-78
2023/07/22 07:21:22;;;;;;;6.97;3.95;;;;;;;18.83;nan;100493.25;4836072;29;20041;-78
2023/07/22 07:23:50;;;;;;;5.15;3.75;;;;;;;18.82;nan;100499.53;4813465;29;20098;-79
2023/07/22 07:26:18;;;;;;;6.80;3.97;;;;;;;18.75;nan;100500.84;4835056;29;20039;-78
2023/07/22 07:28:50;;;;;;;6.47;4.00;;;;;;;18.65;nan;100497.81;4829056;29;20787;-79
2023/07/22 07:31:18;;;;;;;6.28;3.75;;;;;;;18.74;nan;100507.16;4818256;29;20042;-79
2023/07/22 07:33:45;;;;;;;6.10;3.97;;;;;;;18.66;nan;100504.03;4805573;29;20045;-79
2023/07/22 07:36:12;;;;;;;6.72;3.55;;;;;;;18.77;nan;100504.31;4836325;29;20046;-80
2023/07/22 07:38:39;;;;;;;6.25;3.50;;;;;;;18.57;nan;100506.25;4806509;29;20150;-79
2023/07/22 07:41:11;;;;;;;7.82;3.85;;;;;;;18.46;nan;100508.66;4831651;29;20043;-81
2023/07/22 07:43:39;;;;;;;5.18;3.78;;;;;;;18.51;nan;100514.63;4826032;29;20038;-81
2023/07/22 07:46:23;;;;;;;6.82;3.85;;;;;;;18.36;nan;100519.97;4810873;29;20053;-81
2023/07/22 07:48:51;;;;;;;;;;;;;;;18.32;nan;100534.44;4835282;29;20042;-79
2023/07/22 07:51:19;;;;;;;7.72;4.18;;;;;;;18.06;nan;100531.38;4816791;29;19925;-79
2023/07/22 07:53:47;;;;;;;7.22;3.70;;;;;;;17.94;nan;100532.91;4808327;29;20041;-79
2023/07/22 07:56:15;;;;;;;6.65;4.15;;;;;;;17.98;nan;100537.13;4811926;29;20049;-78
2023/07/22 07:58:43;;;;;;;7.07;4.07;;;;;;;18.12;nan;100546.22;4809482;29;20098;-80
2023/07/22 08:01:10;;;;;;;5.50;3.28;;;;;;;18.11;nan;100534.66;4808388;29;20147;-78
2023/07/22 08:03:39;;;;;;;5.47;3.42;;;;;;;18.11;nan;100541.81;4831618;29;20039;-79
2023/07/22 08:06:06;;;;;;;5.25;3.60;;;;;;;18.02;nan;100545.00;4793063;29;20039;-80
2023/07/22 08:08:37;;;;;;;6.07;3.20;;;;;;;17.95;nan;100550.66;4803072;29;20049;-78
2023/07/22 08:11:15;;;;;;;5.68;3.55;;;;;;;17.79;nan;100543.53;4822852;29;20066;-79
2023/07/22 08:13:43;;;;;;;5.28;3.17;;;;;;;17.56;nan;100552.69;4833508;29;20122;-80
2023/07/22 08:16:12;;;;;;;6.05;3.15;;;;;;;17.71;nan;100555.47;4804684;29;20426;-78
2023/07/22 08:18:39;;;;;;;5.05;3.13;;;;;;;17.71;nan;100547.44;4813208;29;20117;-79
2023/07/22 08:21:07;;;;;;;6.47;3.60;;;;;;;17.80;nan;100545.25;4800634;29;20034;-80
2023/07/22 08:23:36;;;;;;;5.25;3.10;;;;;;;17.87;nan;100552.00;4813140;29;20114;-79
2023/07/22 08:26:05;;;;;;;6.82;3.13;;;;;;;18.04;nan;100556.47;4802348;29;20046;-80
2023/07/22 08:28:32;;;;;;;4.75;4.25;;;;;;;17.79;nan;100548.88;4820165;29;20118;-79
2023/07/22 08:31:00;;;;;;;6.22;3.88;;;;;;;17.70;nan;100558.22;4807010;29;20113;-80
2023/07/22 08:33:27;;;;;;;5.97;3.47;;;;;;;17.66;nan;100562.84;4825533;29;20094;-79
2023/07/22 08:36:06;;;;;;;5.55;3.63;;;;;;;17.64;nan;100558.50;4835560;29;20566;-80
2023/07/22 08:38:33;;;;;;;6.97;4.82;;;;;;;17.59;nan;100558.75;4808864;29;20110;-79
2023/07/22 08:41:00;;;;;;;6.22;3.70;;;;;;;17.67;nan;100561.03;4830699;29;20042;-80
2023/07/22 08:43:29;;;;;;;5.30;2.95;;;;;;;17.83;nan;100564.69;4812436;29;20482;-80
2023/07/22 08:46:00;;;;;;;6.00;3.40;;;;;;;18.47;nan;100566.56;4803997;29;20161;-81
2023/07/22 08:48:32;;;;;;;5.13;3.20;;;;;;;19.08;nan;100555.13;4807095;29;20122;-80
2023/07/22 08:51:10;;;;;;;5.03;2.83;;;;;;;19.66;nan;100551.75;4807014;29;20091;-80
2023/07/22 08:53:37;;;;;;;4.47;3.08;;;;;;;19.86;nan;100547.03;4803882;29;20149;-80
2023/07/22 08:56:04;;;;;;;5.45;3.03;;;;;;;19.76;nan;100554.78;4810172;29;20117;-79
2023/07/22 08:58:32;;;;;;;4.70;2.63;;;;;;;19.82;nan;100553.53;4834390;29;20035;-79
2023/07/22 09:00:59;;;;;;;5.40;2.65;;;;;;;20.23;nan;100569.75;4804394;29;20042;-80
2023/07/22 09:03:26;;;;;;;4.18;2.58;;;;;;;20.51;nan;100552.81;4785726;29;20050;-80
2023/07/22 09:05:54;;;;;;;3.92;2.60;;;;;;;20.83;nan;100566.00;4835134;29;20057;-80
2023/07/22 09:08:21;;;;;;;3.72;2.67;;;;;;;20.48;nan;100561.94;4835113;29;20107;-80
2023/07/22 09:10:48;;;;;;;3.72;2.47;;;;;;;20.42;nan;100561.41;4832949;29;20047;-78
2023/07/22 09:13:17;;;;;;;4.75;2.80;;;;;;;20.39;nan;100561.63;4812290;29;20126;-80
2023/07/22 09:15:44;;;;;;;3.72;2.65;;;;;;;20.45;nan;100558.59;4812435;29;20126;-81
2023/07/22 09:18:12;;;;;;;3.10;2.40;;;;;;;20.99;nan;100556.00;4834840;29;20122;-80
2023/07/22 09:20:38;;;;;;;4.25;2.70;;;;;;;21.09;nan;100560.66;4820474;29;20134;-79
2023/07/22 09:23:06;;;;;;;4.28;2.70;;;;;;;21.08;nan;100563.44;4813395;29;20162;-80
2023/07/22 09:25:41;;;;;;;2.40;1.85;;;;;;;21.24;nan;100563.31;4795827;29;20126;-79
2023/07/22 09:28:09;;;;;;;3.17;2.10;;;;;;;21.62;nan;100566.16;4787824;29;20043;-80
2023/07/22 09:30:40;;;;;;;3.08;2.25;;;;;;;21.76;nan;100568.75;4806919;29;20060;-79
2023/07/22 09:33:21;;;;;;;2.50;1.75;;;;;;;21.34;nan;100565.28;4819091;29;20039;-80
2023/07/22 09:35:49;;;;;;;2.30;1.60;;;;;;;20.64;nan;100566.34;4793975;29;20051;-80
2023/07/22 09:38:24;;;;;;;3.65;2.22;;;;;;;20.41;nan;100567.75;4809358;29;20061;-81
2023/07/22 09:40:51;;;;;;;2.60;1.83;;;;;;;20.63;nan;100565.47;4814837;29;20058;-81
2023/07/22 09:43:18;;;;;;;3.28;1.98;;;;;;;20.70;nan;100572.19;4822296;29;20043;-80
2023/07/22 09:45:48;;;;;;;4.10;2.05;;;;;;;20.37;nan;100571.59;4821302;29;20045;-79
2023/07/22 09:48:16;;;;;;;3.22;2.05;;;;;;;20.54;nan;100568.75;4823511;29;20043;-81
2023/07/22 09:50:43;;;;;;;4.43;1.80;;;;;;;20.73;nan;100565.75;4803644;29;20039;-80
2023/07/22 09:53:14;;;;;;;4.00;1.75;;;;;;;20.92;nan;100570.78;4812889;29;20500;-79
2023/07/22 09:55:41;;;;;;;4.07;2.15;;;;;;;20.94;nan;100568.88;4803294;29;20045;-81
2023/07/22 09:58:10;;;;;;;3.42;2.15;;;;;;;20.88;nan;100575.50;4798245;29;20047;-80
2023/07/22 10:00:38;;;;;;;1.85;1.42;;;;;;;20.68;nan;100566.06;4820980;29;20043;-81
2023/07/22 10:03:09;;;;;;;2.45;1.60;;;;;;;20.46;nan;100574.59;4832577;29;20076;-80
2023/07/22 10:05:38;;;;;;;2.45;1.45;;;;;;;20.41;nan;100578.47;4770316;29;20043;-80
2023/07/22 10:08:06;;;;;;;3.45;2.10;;;;;;;20.09;nan;100578.66;4798532;29;20051;-79
2023/07/22 10:10:42;;;;;;;3.03;1.70;;;;;;;20.61;nan;100579.97;4829749;29;20053;-79
2023/07/22 10:13:09;;;;;;;2.58;1.50;;;;;;;20.78;nan;100571.69;4827799;29;20047;-81
2023/07/22 10:15:36;;;;;;;2.83;1.83;;;;;;;20.69;nan;100575.81;4786901;29;20059;-80
2023/07/22 10:18:05;;;;;;;3.22;1.58;;;;;;;20.78;nan;100580.59;4815590;29;20051;-81
2023/07/22 10:20:36;;;;;;;2.58;1.35;;;;;;;20.82;nan;100583.09;4804471;29;20522;-81
2023/07/22 10:23:04;;;;;;;2.95;1.70;;;;;;;21.26;nan;100586.41;4831112;29;20047;-82
2023/07/22 10:25:31;;;;;;;3.00;1.80;;;;;;;21.61;nan;100585.94;4804292;29;20042;-81
2023/07/22 10:27:58;;;;;;;2.35;1.63;;;;;;;21.61;nan;100577.88;4801356;29;20057;-80
2023/07/22 10:30:25;;;;;;;2.13;1.65;;;;;;;21.52;nan;100581.16;4808827;29;20114;-81
2023/07/22 10:32:52;;;;;;;2.63;1.88;;;;;;;21.38;nan;100587.47;4804320;29;20049;-79
2023/07/22 10:35:39;;;;;;;3.30;2.03;;;;;;;21.55;nan;100587.22;4808349;29;20057;-81
2023/07/22 10:38:13;;;;;;;4.43;1.88;;;;;;;21.44;nan;100586.19;4781051;29;20089;-83
2023/07/22 10:40:50;;;;;;;;;;;;;;;21.46;nan;100586.97;4826411;29;20043;-83
2023/07/22 10:43:18;;;;;;;3.22;1.92;;;;;;;21.68;nan;100592.59;4816728;29;19933;-80
2023/07/22 10:48:48;;;;;;;2.90;1.58;;;;;;;21.64;nan;100585.72;5145391;23;20089;-83
2023/07/22 10:51:15;;;;;;;2.38;1.40;;;;;;;21.92;nan;100588.25;4868161;29;20415;-82
2023/07/22 10:53:47;;;;;;;2.28;1.63;;;;;;;21.80;nan;100594.47;4869000;29;20112;-83
2023/07/22 10:56:21;;;;;;;1.98;1.50;;;;;;;21.57;nan;100600.53;4849937;29;20041;-82
2023/07/22 10:58:52;;;;;;;3.25;1.98;;;;;;;21.50;nan;100597.41;4853123;29;20042;-81
2023/07/22 11:01:28;;;;;;;2.17;1.30;;;;;;;21.63;nan;100592.94;4834717;29;20049;-80
2023/07/22 11:04:17;;;;;;;2.05;1.60;;;;;;;21.69;nan;100588.09;4847078;29;20071;-80
2023/07/22 11:06:44;;;;;;;3.97;1.70;;;;;;;21.85;nan;100591.44;4848648;29;20058;-79
2023/07/22 11:09:26;;;;;;;2.58;1.90;;;;;;;21.70;nan;100588.00;4854159;29;20046;-80
2023/07/22 11:12:04;;;;;;;24.48;4.72;;;;;;;21.70;nan;100585.31;4848706;29;20051;-81
2023/07/22 11:14:41;;;;;;;2.60;1.77;;;;;;;21.48;nan;100591.25;4850383;29;20069;-81
2023/07/22 11:17:08;;;;;;;2.80;1.65;;;;;;;21.45;nan;100587.94;4847994;29;20408;-81
2023/07/22 11:19:35;;;;;;;3.15;1.60;;;;;;;21.39;nan;100591.03;4854986;29;20046;-82
2023/07/22 11:22:03;;;;;;;5.82;1.80;;;;;;;21.32;nan;100588.72;4848496;29;20408;-82
2023/07/22 11:24:32;;;;;;;3.08;1.83;;;;;;;21.32;nan;100602.16;4847155;29;20416;-81
2023/07/22 11:26:59;;;;;;;2.65;1.90;;;;;;;21.39;nan;100580.28;4849643;29;20045;-82
2023/07/22 11:29:26;;;;;;;2.47;1.77;;;;;;;21.47;nan;100588.69;4866017;29;20040;-82
2023/07/22 11:31:53;;;;;;;3.33;1.95;;;;;;;21.41;nan;100586.41;4864766;29;20089;-80
2023/07/22 11:34:22;;;;;;;5.57;2.22;;;;;;;21.63;nan;100594.75;4851089;29;20038;-82
2023/07/22 11:36:53;;;;;;;2.88;1.75;;;;;;;21.83;nan;100588.00;4848122;29;20037;-81
2023/07/22 11:39:21;;;;;;;1.98;1.55;;;;;;;21.93;nan;100589.97;4849407;29;20063;-81
2023/07/22 11:41:49;;;;;;;2.28;1.65;;;;;;;22.11;nan;100589.69;4864943;29;20038;-81
2023/07/22 11:44:27;;;;;;;2.17;1.67;;;;;;;21.54;nan;100588.19;4866079;29;20046;-81
2023/07/22 11:46:59;;;;;;;2.45;1.83;;;;;;;21.88;nan;100600.19;4854762;29;20044;-81
2023/07/22 11:49:30;;;;;;;2.63;1.73;;;;;;;22.19;nan;100587.31;4837785;29;20049;-81